sensor_id;sensor_type;location;lat;lon;timestamp;P1;durP1;ratioP1;P2;durP2;ratioP2
76903;SDS011;65865;51.698;-0.292;2023-09-19T00:01:05;2.22;;;0.40;;
76903;SDS011;65865;51.698;-0.292;2023-09-19T00:03:36;1.70;;;0.40;;
76903;SDS011;65865;51.698;-0.292;2023-09-19T00:06:02;1.05;;;0.20;;
76903;SDS011;65865;51.698;-0.292;2023-09-19T00:08:29;1.23;;;0.52;;
76903;SDS011;65865;51.698;-0.292;2023-09-19T00:10:55;2.25;;;0.50;;
76903;SDS011;65865;51.698;-0.292;2023-09-19T00:13:28;2.00;;;0.40;;
76903;SDS011;65865;51.698;-0.292;2023-09-19T00:15:55;1.98;;;0.30;;
76903;SDS011;65865;51.698;-0.292;2023-09-19T00:18:24;2.25;;;0.40;;
76903;SDS011;65865;51.698;-0.292;2023-09-19T00:20:57;1.75;;;0.30;;
76903;SDS011;65865;51.698;-0.292;2023-09-19T00:23:23;2.50;;;0.50;;
76903;SDS011;65865;51.698;-0.292;2023-09-19T00:25:50;1.95;;;0.30;;
76903;SDS011;65865;51.698;-0.292;2023-09-19T00:28:16;2.15;;;0.40;;
76903;SDS011;65865;51.698;-0.292;2023-09-19T00:30:43;2.40;;;0.30;;
76903;SDS011;65865;51.698;-0.292;2023-09-19T00:33:09;2.03;;;0.22;;
76903;SDS011;65865;51.698;-0.292;2023-09-19T00:35:46;0.90;;;0.20;;
76903;SDS011;65865;51.698;-0.292;2023-09-19T00:38:12;1.63;;;0.40;;
76903;SDS011;65865;51.698;-0.292;2023-09-19T00:43:06;4.55;;;0.52;;
76903;SDS011;65865;51.698;-0.292;2023-09-19T00:45:33;1.30;;;0.30;;
76903;SDS011;65865;51.698;-0.292;2023-09-19T00:48:00;2.00;;;0.35;;
76903;SDS011;65865;51.698;-0.292;2023-09-19T00:52:57;1.52;;;0.32;;
76903;SDS011;65865;51.698;-0.292;2023-09-19T00:55:24;2.42;;;0.50;;
76903;SDS011;65865;51.698;-0.292;2023-09-19T00:57:50;1.38;;;0.35;;
76903;SDS011;65865;51.698;-0.292;2023-09-19T01:00:17;3.20;;;0.40;;
76903;SDS011;65865;51.698;-0.292;2023-09-19T01:02:45;2.13;;;0.40;;
76903;SDS011;65865;51.698;-0.292;2023-09-19T01:05:11;1.15;;;0.30;;
76903;SDS011;65865;51.698;-0.292;2023-09-19T01:07:37;2.28;;;0.35;;
76903;SDS011;65865;51.698;-0.292;2023-09-19T01:10:17;1.35;;;0.40;;
76903;SDS011;65865;51.698;-0.292;2023-09-19T01:17:49;2.58;;;0.47;;
76903;SDS011;65865;51.698;-0.292;2023-09-19T01:28:39;1.77;;;0.30;;
76903;SDS011;65865;51.698;-0.292;2023-09-19T01:30:43;1.42;;;0.50;;
76903;SDS011;65865;51.698;-0.292;2023-09-19T01:33:09;3.15;;;0.40;;
76903;SDS011;65865;51.698;-0.292;2023-09-19T01:35:38;4.00;;;0.70;;
76903;SDS011;65865;51.698;-0.292;2023-09-19T01:38:07;2.15;;;0.50;;
76903;SDS011;65865;51.698;-0.292;2023-09-19T01:40:43;1.48;;;0.38;;
76903;SDS011;65865;51.698;-0.292;2023-09-19T01:43:12;1.52;;;0.52;;
76903;SDS011;65865;51.698;-0.292;2023-09-19T01:48:49;1.52;;;0.40;;
76903;SDS011;65865;51.698;-0.292;2023-09-19T01:51:20;2.42;;;0.60;;
76903;SDS011;65865;51.698;-0.292;2023-09-19T01:56:16;1.33;;;0.40;;
76903;SDS011;65865;51.698;-0.292;2023-09-19T01:58:48;2.35;;;0.45;;
76903;SDS011;65865;51.698;-0.292;2023-09-19T02:01:22;3.40;;;0.70;;
76903;SDS011;65865;51.698;-0.292;2023-09-19T02:03:48;2.55;;;0.45;;
76903;SDS011;65865;51.698;-0.292;2023-09-19T02:06:14;2.42;;;0.50;;
76903;SDS011;65865;51.698;-0.292;2023-09-19T02:08:40;2.67;;;0.52;;
76903;SDS011;65865;51.698;-0.292;2023-09-19T02:11:06;3.30;;;0.40;;
76903;SDS011;65865;51.698;-0.292;2023-09-19T02:13:32;2.33;;;0.40;;
76903;SDS011;65865;51.698;-0.292;2023-09-19T02:15:59;3.30;;;0.40;;
76903;SDS011;65865;51.698;-0.292;2023-09-19T02:18:25;2.95;;;0.40;;
76903;SDS011;65865;51.698;-0.292;2023-09-19T02:20:53;2.75;;;0.40;;
76903;SDS011;65865;51.698;-0.292;2023-09-19T02:23:19;2.60;;;0.52;;
76903;SDS011;65865;51.698;-0.292;2023-09-19T02:25:52;2.72;;;0.52;;
76903;SDS011;65865;51.698;-0.292;2023-09-19T02:28:18;2.15;;;0.70;;
76903;SDS011;65865;51.698;-0.292;2023-09-19T02:30:47;1.90;;;0.50;;
76903;SDS011;65865;51.698;-0.292;2023-09-19T02:33:14;2.72;;;0.65;;
76903;SDS011;65865;51.698;-0.292;2023-09-19T02:35:40;2.15;;;0.40;;
76903;SDS011;65865;51.698;-0.292;2023-09-19T02:38:06;2.05;;;0.50;;
76903;SDS011;65865;51.698;-0.292;2023-09-19T02:40:37;2.50;;;0.38;;
76903;SDS011;65865;51.698;-0.292;2023-09-19T02:43:03;3.58;;;0.57;;
76903;SDS011;65865;51.698;-0.292;2023-09-19T02:45:30;3.58;;;0.40;;
76903;SDS011;65865;51.698;-0.292;2023-09-19T02:47:56;1.80;;;0.50;;
76903;SDS011;65865;51.698;-0.292;2023-09-19T02:50:22;2.17;;;0.43;;
76903;SDS011;65865;51.698;-0.292;2023-09-19T02:52:48;2.13;;;0.32;;
76903;SDS011;65865;51.698;-0.292;2023-09-19T02:55:18;2.50;;;0.30;;
76903;SDS011;65865;51.698;-0.292;2023-09-19T02:57:47;2.03;;;0.60;;
76903;SDS011;65865;51.698;-0.292;2023-09-19T03:00:15;1.42;;;0.32;;
76903;SDS011;65865;51.698;-0.292;2023-09-19T03:02:41;2.30;;;0.40;;
76903;SDS011;65865;51.698;-0.292;2023-09-19T03:05:07;2.35;;;0.47;;
76903;SDS011;65865;51.698;-0.292;2023-09-19T03:07:36;2.78;;;0.35;;
76903;SDS011;65865;51.698;-0.292;2023-09-19T03:10:03;3.20;;;0.50;;
76903;SDS011;65865;51.698;-0.292;2023-09-19T03:12:30;3.55;;;0.60;;
76903;SDS011;65865;51.698;-0.292;2023-09-19T03:14:56;2.47;;;0.50;;
76903;SDS011;65865;51.698;-0.292;2023-09-19T03:17:24;2.55;;;0.32;;
76903;SDS011;65865;51.698;-0.292;2023-09-19T03:19:50;3.45;;;0.60;;
76903;SDS011;65865;51.698;-0.292;2023-09-19T03:22:16;2.90;;;0.40;;
76903;SDS011;65865;51.698;-0.292;2023-09-19T03:24:42;2.08;;;0.60;;
76903;SDS011;65865;51.698;-0.292;2023-09-19T03:27:11;2.55;;;0.52;;
76903;SDS011;65865;51.698;-0.292;2023-09-19T03:29:41;1.95;;;0.40;;
76903;SDS011;65865;51.698;-0.292;2023-09-19T03:32:07;3.03;;;0.40;;
76903;SDS011;65865;51.698;-0.292;2023-09-19T03:34:37;2.08;;;0.55;;
76903;SDS011;65865;51.698;-0.292;2023-09-19T03:37:08;2.10;;;0.35;;
76903;SDS011;65865;51.698;-0.292;2023-09-19T03:39:34;2.65;;;0.50;;
76903;SDS011;65865;51.698;-0.292;2023-09-19T03:42:01;2.55;;;0.40;;
76903;SDS011;65865;51.698;-0.292;2023-09-19T03:44:32;4.10;;;0.50;;
76903;SDS011;65865;51.698;-0.292;2023-09-19T03:46:58;3.92;;;0.70;;
76903;SDS011;65865;51.698;-0.292;2023-09-19T03:49:24;3.40;;;0.57;;
76903;SDS011;65865;51.698;-0.292;2023-09-19T03:51:50;3.92;;;0.50;;
76903;SDS011;65865;51.698;-0.292;2023-09-19T03:54:16;3.05;;;0.70;;
76903;SDS011;65865;51.698;-0.292;2023-09-19T03:56:44;2.38;;;0.47;;
76903;SDS011;65865;51.698;-0.292;2023-09-19T03:59:11;3.88;;;0.65;;
76903;SDS011;65865;51.698;-0.292;2023-09-19T04:01:37;3.45;;;0.50;;
76903;SDS011;65865;51.698;-0.292;2023-09-19T04:04:06;2.70;;;0.52;;
76903;SDS011;65865;51.698;-0.292;2023-09-19T04:06:36;5.05;;;0.77;;
76903;SDS011;65865;51.698;-0.292;2023-09-19T04:09:03;4.10;;;0.50;;
76903;SDS011;65865;51.698;-0.292;2023-09-19T04:11:31;2.88;;;0.47;;
76903;SDS011;65865;51.698;-0.292;2023-09-19T04:13:58;1.83;;;0.45;;
76903;SDS011;65865;51.698;-0.292;2023-09-19T04:16:24;2.88;;;0.40;;
76903;SDS011;65865;51.698;-0.292;2023-09-19T04:18:50;3.40;;;0.70;;
76903;SDS011;65865;51.698;-0.292;2023-09-19T04:21:16;2.13;;;0.45;;
76903;SDS011;65865;51.698;-0.292;2023-09-19T04:23:44;4.90;;;0.57;;
76903;SDS011;65865;51.698;-0.292;2023-09-19T04:26:10;1.85;;;0.30;;
76903;SDS011;65865;51.698;-0.292;2023-09-19T04:28:36;4.25;;;0.60;;
76903;SDS011;65865;51.698;-0.292;2023-09-19T04:31:03;2.35;;;0.38;;
76903;SDS011;65865;51.698;-0.292;2023-09-19T04:33:29;2.67;;;0.40;;
76903;SDS011;65865;51.698;-0.292;2023-09-19T04:35:55;2.10;;;0.40;;
76903;SDS011;65865;51.698;-0.292;2023-09-19T04:38:21;1.70;;;0.60;;
76903;SDS011;65865;51.698;-0.292;2023-09-19T04:40:48;2.70;;;0.50;;
76903;SDS011;65865;51.698;-0.292;2023-09-19T04:43:14;1.60;;;0.30;;
76903;SDS011;65865;51.698;-0.292;2023-09-19T04:45:40;5.50;;;0.55;;
76903;SDS011;65865;51.698;-0.292;2023-09-19T04:48:06;2.33;;;0.35;;
76903;SDS011;65865;51.698;-0.292;2023-09-19T04:50:33;2.00;;;0.38;;
76903;SDS011;65865;51.698;-0.292;2023-09-19T04:52:59;1.92;;;0.40;;
76903;SDS011;65865;51.698;-0.292;2023-09-19T04:55:26;2.65;;;0.50;;
76903;SDS011;65865;51.698;-0.292;2023-09-19T04:57:52;2.30;;;0.30;;
76903;SDS011;65865;51.698;-0.292;2023-09-19T05:00:19;2.35;;;0.30;;
76903;SDS011;65865;51.698;-0.292;2023-09-19T05:02:48;1.95;;;0.47;;
76903;SDS011;65865;51.698;-0.292;2023-09-19T05:05:14;3.17;;;0.70;;
76903;SDS011;65865;51.698;-0.292;2023-09-19T05:07:42;2.33;;;0.55;;
76903;SDS011;65865;51.698;-0.292;2023-09-19T05:10:09;2.50;;;0.30;;
76903;SDS011;65865;51.698;-0.292;2023-09-19T05:12:36;3.05;;;0.40;;
76903;SDS011;65865;51.698;-0.292;2023-09-19T05:15:03;3.20;;;0.45;;
76903;SDS011;65865;51.698;-0.292;2023-09-19T05:17:29;2.40;;;0.40;;
76903;SDS011;65865;51.698;-0.292;2023-09-19T05:19:56;2.65;;;0.45;;
76903;SDS011;65865;51.698;-0.292;2023-09-19T05:22:23;2.80;;;0.35;;
76903;SDS011;65865;51.698;-0.292;2023-09-19T05:24:49;2.08;;;0.52;;
76903;SDS011;65865;51.698;-0.292;2023-09-19T05:27:16;2.47;;;0.50;;
76903;SDS011;65865;51.698;-0.292;2023-09-19T05:29:45;2.60;;;0.40;;
76903;SDS011;65865;51.698;-0.292;2023-09-19T05:32:11;2.40;;;0.35;;
76903;SDS011;65865;51.698;-0.292;2023-09-19T05:34:37;1.90;;;0.30;;
76903;SDS011;65865;51.698;-0.292;2023-09-19T05:37:03;1.77;;;0.40;;
76903;SDS011;65865;51.698;-0.292;2023-09-19T05:39:32;1.98;;;0.40;;
76903;SDS011;65865;51.698;-0.292;2023-09-19T05:41:58;1.52;;;0.30;;
76903;SDS011;65865;51.698;-0.292;2023-09-19T05:44:25;2.20;;;0.30;;
76903;SDS011;65865;51.698;-0.292;2023-09-19T05:46:51;2.60;;;0.43;;
76903;SDS011;65865;51.698;-0.292;2023-09-19T05:49:17;2.55;;;0.40;;
76903;SDS011;65865;51.698;-0.292;2023-09-19T05:51:46;3.35;;;0.50;;
76903;SDS011;65865;51.698;-0.292;2023-09-19T05:54:12;3.45;;;0.55;;
76903;SDS011;65865;51.698;-0.292;2023-09-19T05:56:38;2.55;;;0.57;;
76903;SDS011;65865;51.698;-0.292;2023-09-19T05:59:04;3.45;;;0.40;;
76903;SDS011;65865;51.698;-0.292;2023-09-19T06:01:30;2.17;;;0.40;;
76903;SDS011;65865;51.698;-0.292;2023-09-19T06:03:59;6.68;;;0.60;;
76903;SDS011;65865;51.698;-0.292;2023-09-19T06:06:25;2.08;;;0.43;;
76903;SDS011;65865;51.698;-0.292;2023-09-19T06:08:51;2.63;;;0.50;;
76903;SDS011;65865;51.698;-0.292;2023-09-19T06:11:17;2.45;;;0.40;;
76903;SDS011;65865;51.698;-0.292;2023-09-19T06:13:45;2.63;;;0.40;;
76903;SDS011;65865;51.698;-0.292;2023-09-19T06:16:12;2.40;;;0.30;;
76903;SDS011;65865;51.698;-0.292;2023-09-19T06:18:38;2.90;;;0.55;;
76903;SDS011;65865;51.698;-0.292;2023-09-19T06:21:04;1.67;;;0.22;;
76903;SDS011;65865;51.698;-0.292;2023-09-19T06:28:25;1.77;;;0.32;;
76903;SDS011;65865;51.698;-0.292;2023-09-19T06:30:53;3.15;;;0.40;;
76903;SDS011;65865;51.698;-0.292;2023-09-19T06:33:19;3.28;;;0.50;;
76903;SDS011;65865;51.698;-0.292;2023-09-19T06:35:46;2.28;;;0.40;;
76903;SDS011;65865;51.698;-0.292;2023-09-19T06:38:13;2.13;;;0.38;;
76903;SDS011;65865;51.698;-0.292;2023-09-19T06:40:40;1.70;;;0.47;;
76903;SDS011;65865;51.698;-0.292;2023-09-19T06:43:09;1.90;;;0.40;;
76903;SDS011;65865;51.698;-0.292;2023-09-19T06:45:36;2.97;;;0.50;;
76903;SDS011;65865;51.698;-0.292;2023-09-19T06:48:02;1.08;;;0.30;;
76903;SDS011;65865;51.698;-0.292;2023-09-19T06:50:30;2.65;;;0.45;;
76903;SDS011;65865;51.698;-0.292;2023-09-19T06:52:56;2.08;;;0.40;;
76903;SDS011;65865;51.698;-0.292;2023-09-19T06:55:24;2.03;;;0.50;;
76903;SDS011;65865;51.698;-0.292;2023-09-19T06:57:53;2.10;;;0.50;;
76903;SDS011;65865;51.698;-0.292;2023-09-19T07:00:19;3.08;;;0.70;;
76903;SDS011;65865;51.698;-0.292;2023-09-19T07:03:01;2.22;;;0.43;;
76903;SDS011;65865;51.698;-0.292;2023-09-19T07:05:31;3.65;;;0.40;;
76903;SDS011;65865;51.698;-0.292;2023-09-19T07:07:58;2.67;;;0.30;;
76903;SDS011;65865;51.698;-0.292;2023-09-19T07:10:25;2.58;;;0.45;;
76903;SDS011;65865;51.698;-0.292;2023-09-19T07:12:55;2.92;;;0.40;;
76903;SDS011;65865;51.698;-0.292;2023-09-19T07:15:22;1.90;;;0.40;;
76903;SDS011;65865;51.698;-0.292;2023-09-19T07:17:49;1.65;;;0.40;;
76903;SDS011;65865;51.698;-0.292;2023-09-19T07:20:15;4.05;;;0.63;;
76903;SDS011;65865;51.698;-0.292;2023-09-19T07:22:41;2.78;;;0.30;;
76903;SDS011;65865;51.698;-0.292;2023-09-19T07:25:07;1.90;;;0.60;;
76903;SDS011;65865;51.698;-0.292;2023-09-19T07:27:34;2.55;;;0.40;;
76903;SDS011;65865;51.698;-0.292;2023-09-19T07:30:00;1.83;;;0.55;;
76903;SDS011;65865;51.698;-0.292;2023-09-19T07:32:26;3.50;;;0.60;;
76903;SDS011;65865;51.698;-0.292;2023-09-19T07:34:52;2.70;;;0.40;;
76903;SDS011;65865;51.698;-0.292;2023-09-19T07:37:20;2.60;;;0.40;;
76903;SDS011;65865;51.698;-0.292;2023-09-19T07:39:46;2.22;;;0.30;;
76903;SDS011;65865;51.698;-0.292;2023-09-19T07:42:12;1.65;;;0.35;;
76903;SDS011;65865;51.698;-0.292;2023-09-19T07:44:43;3.03;;;0.60;;
76903;SDS011;65865;51.698;-0.292;2023-09-19T07:47:12;2.17;;;0.30;;
76903;SDS011;65865;51.698;-0.292;2023-09-19T07:49:38;3.88;;;0.55;;
76903;SDS011;65865;51.698;-0.292;2023-09-19T07:52:04;4.43;;;0.60;;
76903;SDS011;65865;51.698;-0.292;2023-09-19T07:54:30;2.70;;;0.50;;
76903;SDS011;65865;51.698;-0.292;2023-09-19T07:57:00;3.65;;;0.50;;
76903;SDS011;65865;51.698;-0.292;2023-09-19T07:59:26;5.05;;;1.10;;
76903;SDS011;65865;51.698;-0.292;2023-09-19T08:01:52;3.78;;;0.50;;
76903;SDS011;65865;51.698;-0.292;2023-09-19T08:04:19;4.13;;;0.70;;
76903;SDS011;65865;51.698;-0.292;2023-09-19T08:06:45;3.45;;;0.57;;
76903;SDS011;65865;51.698;-0.292;2023-09-19T08:09:11;4.57;;;1.23;;
76903;SDS011;65865;51.698;-0.292;2023-09-19T08:11:42;4.72;;;0.77;;
76903;SDS011;65865;51.698;-0.292;2023-09-19T08:14:08;5.18;;;0.63;;
76903;SDS011;65865;51.698;-0.292;2023-09-19T08:16:39;2.95;;;0.60;;
76903;SDS011;65865;51.698;-0.292;2023-09-19T08:19:11;3.78;;;0.70;;
76903;SDS011;65865;51.698;-0.292;2023-09-19T08:21:37;5.47;;;0.80;;
76903;SDS011;65865;51.698;-0.292;2023-09-19T08:24:03;4.35;;;0.65;;
76903;SDS011;65865;51.698;-0.292;2023-09-19T08:26:29;4.32;;;0.75;;
76903;SDS011;65865;51.698;-0.292;2023-09-19T08:28:56;4.65;;;0.93;;
76903;SDS011;65865;51.698;-0.292;2023-09-19T08:31:22;4.78;;;0.80;;
76903;SDS011;65865;51.698;-0.292;2023-09-19T08:33:48;5.15;;;0.98;;
76903;SDS011;65865;51.698;-0.292;2023-09-19T08:38:42;5.75;;;0.80;;
76903;SDS011;65865;51.698;-0.292;2023-09-19T08:41:08;4.60;;;0.90;;
76903;SDS011;65865;51.698;-0.292;2023-09-19T08:43:34;4.05;;;0.82;;
76903;SDS011;65865;51.698;-0.292;2023-09-19T08:46:16;3.30;;;0.80;;
76903;SDS011;65865;51.698;-0.292;2023-09-19T08:48:48;4.90;;;1.02;;
76903;SDS011;65865;51.698;-0.292;2023-09-19T08:51:58;3.70;;;0.75;;
76903;SDS011;65865;51.698;-0.292;2023-09-19T08:54:07;4.43;;;0.88;;
76903;SDS011;65865;51.698;-0.292;2023-09-19T08:56:35;2.90;;;0.70;;
76903;SDS011;65865;51.698;-0.292;2023-09-19T08:59:04;6.18;;;0.98;;
76903;SDS011;65865;51.698;-0.292;2023-09-19T09:01:34;4.70;;;1.13;;
76903;SDS011;65865;51.698;-0.292;2023-09-19T09:04:02;4.00;;;0.95;;
76903;SDS011;65865;51.698;-0.292;2023-09-19T09:06:29;5.88;;;1.50;;
76903;SDS011;65865;51.698;-0.292;2023-09-19T09:08:57;6.55;;;1.10;;
76903;SDS011;65865;51.698;-0.292;2023-09-19T09:11:23;6.40;;;1.40;;
76903;SDS011;65865;51.698;-0.292;2023-09-19T09:13:53;6.60;;;1.27;;
76903;SDS011;65865;51.698;-0.292;2023-09-19T09:16:19;5.90;;;1.23;;
76903;SDS011;65865;51.698;-0.292;2023-09-19T09:18:45;6.32;;;1.60;;
76903;SDS011;65865;51.698;-0.292;2023-09-19T09:21:21;5.75;;;1.20;;
76903;SDS011;65865;51.698;-0.292;2023-09-19T09:23:48;5.15;;;1.00;;
76903;SDS011;65865;51.698;-0.292;2023-09-19T09:26:14;4.43;;;1.20;;
76903;SDS011;65865;51.698;-0.292;2023-09-19T09:28:44;5.60;;;1.10;;
76903;SDS011;65865;51.698;-0.292;2023-09-19T09:31:23;5.60;;;0.90;;
76903;SDS011;65865;51.698;-0.292;2023-09-19T09:33:56;4.43;;;1.20;;
76903;SDS011;65865;51.698;-0.292;2023-09-19T09:36:36;5.35;;;1.13;;
76903;SDS011;65865;51.698;-0.292;2023-09-19T09:39:02;4.78;;;1.25;;
76903;SDS011;65865;51.698;-0.292;2023-09-19T09:41:41;5.82;;;1.20;;
76903;SDS011;65865;51.698;-0.292;2023-09-19T09:44:14;7.07;;;1.45;;
76903;SDS011;65865;51.698;-0.292;2023-09-19T09:46:44;10.52;;;1.40;;
76903;SDS011;65865;51.698;-0.292;2023-09-19T09:49:23;7.07;;;1.30;;
76903;SDS011;65865;51.698;-0.292;2023-09-19T09:54:32;4.97;;;1.38;;
76903;SDS011;65865;51.698;-0.292;2023-09-19T09:57:04;4.55;;;1.52;;
76903;SDS011;65865;51.698;-0.292;2023-09-19T10:02:19;6.22;;;1.42;;
76903;SDS011;65865;51.698;-0.292;2023-09-19T10:04:49;5.30;;;1.30;;
76903;SDS011;65865;51.698;-0.292;2023-09-19T10:07:38;5.15;;;1.42;;
76903;SDS011;65865;51.698;-0.292;2023-09-19T10:10:07;7.57;;;1.65;;
76903;SDS011;65865;51.698;-0.292;2023-09-19T10:12:46;6.00;;;1.33;;
76903;SDS011;65865;51.698;-0.292;2023-09-19T10:15:14;5.78;;;1.50;;
76903;SDS011;65865;51.698;-0.292;2023-09-19T10:20:08;7.47;;;1.67;;
76903;SDS011;65865;51.698;-0.292;2023-09-19T10:25:08;8.50;;;1.90;;
76903;SDS011;65865;51.698;-0.292;2023-09-19T10:27:35;11.45;;;2.70;;
76903;SDS011;65865;51.698;-0.292;2023-09-19T10:30:03;7.88;;;2.38;;
76903;SDS011;65865;51.698;-0.292;2023-09-19T10:32:32;10.25;;;1.92;;
76903;SDS011;65865;51.698;-0.292;2023-09-19T10:34:59;7.88;;;2.20;;
76903;SDS011;65865;51.698;-0.292;2023-09-19T10:37:25;6.75;;;1.90;;
76903;SDS011;65865;51.698;-0.292;2023-09-19T10:39:53;6.43;;;2.20;;
76903;SDS011;65865;51.698;-0.292;2023-09-19T10:42:21;7.95;;;1.98;;
76903;SDS011;65865;51.698;-0.292;2023-09-19T10:44:50;8.63;;;1.85;;
76903;SDS011;65865;51.698;-0.292;2023-09-19T10:47:18;9.10;;;2.40;;
76903;SDS011;65865;51.698;-0.292;2023-09-19T10:49:45;8.75;;;2.10;;
76903;SDS011;65865;51.698;-0.292;2023-09-19T10:52:12;8.23;;;2.15;;
76903;SDS011;65865;51.698;-0.292;2023-09-19T10:54:43;8.27;;;1.90;;
76903;SDS011;65865;51.698;-0.292;2023-09-19T10:57:10;7.35;;;1.95;;
76903;SDS011;65865;51.698;-0.292;2023-09-19T10:59:48;8.98;;;2.22;;
76903;SDS011;65865;51.698;-0.292;2023-09-19T11:02:27;8.65;;;1.75;;
76903;SDS011;65865;51.698;-0.292;2023-09-19T11:04:53;8.85;;;2.20;;
76903;SDS011;65865;51.698;-0.292;2023-09-19T11:07:19;7.53;;;2.20;;
76903;SDS011;65865;51.698;-0.292;2023-09-19T11:15:00;6.82;;;1.80;;
76903;SDS011;65865;51.698;-0.292;2023-09-19T11:17:36;9.48;;;2.10;;
76903;SDS011;65865;51.698;-0.292;2023-09-19T11:30:40;5.95;;;1.75;;
76903;SDS011;65865;51.698;-0.292;2023-09-19T11:33:27;7.80;;;1.65;;
76903;SDS011;65865;51.698;-0.292;2023-09-19T11:36:09;7.47;;;1.60;;
76903;SDS011;65865;51.698;-0.292;2023-09-19T11:41:57;6.43;;;1.75;;
76903;SDS011;65865;51.698;-0.292;2023-09-19T11:46:33;6.78;;;2.03;;
76903;SDS011;65865;51.698;-0.292;2023-09-19T11:49:06;10.93;;;1.70;;
76903;SDS011;65865;51.698;-0.292;2023-09-19T11:51:41;6.57;;;1.35;;
76903;SDS011;65865;51.698;-0.292;2023-09-19T11:54:10;6.28;;;1.35;;
76903;SDS011;65865;51.698;-0.292;2023-09-19T11:56:53;7.70;;;1.70;;
76903;SDS011;65865;51.698;-0.292;2023-09-19T11:59:20;7.32;;;1.40;;
76903;SDS011;65865;51.698;-0.292;2023-09-19T12:01:53;7.38;;;1.75;;
76903;SDS011;65865;51.698;-0.292;2023-09-19T12:04:32;6.10;;;1.45;;
76903;SDS011;65865;51.698;-0.292;2023-09-19T12:07:02;6.38;;;1.63;;
76903;SDS011;65865;51.698;-0.292;2023-09-19T12:09:29;7.72;;;1.75;;
76903;SDS011;65865;51.698;-0.292;2023-09-19T12:11:55;5.93;;;1.67;;
76903;SDS011;65865;51.698;-0.292;2023-09-19T12:14:25;3.78;;;1.25;;
76903;SDS011;65865;51.698;-0.292;2023-09-19T12:16:55;8.15;;;1.48;;
76903;SDS011;65865;51.698;-0.292;2023-09-19T12:19:22;5.43;;;1.35;;
76903;SDS011;65865;51.698;-0.292;2023-09-19T12:22:01;5.68;;;1.60;;
76903;SDS011;65865;51.698;-0.292;2023-09-19T12:24:29;5.90;;;1.20;;
76903;SDS011;65865;51.698;-0.292;2023-09-19T12:26:59;5.15;;;1.42;;
76903;SDS011;65865;51.698;-0.292;2023-09-19T12:29:26;6.88;;;1.20;;
76903;SDS011;65865;51.698;-0.292;2023-09-19T12:34:26;4.75;;;1.35;;
76903;SDS011;65865;51.698;-0.292;2023-09-19T12:37:05;4.20;;;0.93;;
76903;SDS011;65865;51.698;-0.292;2023-09-19T12:39:37;5.03;;;1.27;;
76903;SDS011;65865;51.698;-0.292;2023-09-19T12:42:03;6.00;;;1.27;;
76903;SDS011;65865;51.698;-0.292;2023-09-19T12:44:29;4.70;;;0.90;;
76903;SDS011;65865;51.698;-0.292;2023-09-19T12:46:55;5.43;;;0.93;;
76903;SDS011;65865;51.698;-0.292;2023-09-19T12:49:24;5.25;;;1.20;;
76903;SDS011;65865;51.698;-0.292;2023-09-19T12:51:54;4.90;;;1.20;;
76903;SDS011;65865;51.698;-0.292;2023-09-19T12:54:23;5.28;;;1.63;;
76903;SDS011;65865;51.698;-0.292;2023-09-19T12:56:51;3.65;;;0.80;;
76903;SDS011;65865;51.698;-0.292;2023-09-19T12:59:19;5.32;;;1.48;;
76903;SDS011;65865;51.698;-0.292;2023-09-19T13:02:03;4.65;;;1.25;;
76903;SDS011;65865;51.698;-0.292;2023-09-19T13:04:29;4.38;;;1.10;;
76903;SDS011;65865;51.698;-0.292;2023-09-19T13:06:57;3.10;;;0.88;;
76903;SDS011;65865;51.698;-0.292;2023-09-19T13:09:26;4.38;;;1.00;;
76903;SDS011;65865;51.698;-0.292;2023-09-19T13:12:03;4.75;;;0.80;;
76903;SDS011;65865;51.698;-0.292;2023-09-19T13:14:31;3.40;;;0.90;;
76903;SDS011;65865;51.698;-0.292;2023-09-19T13:17:08;4.03;;;0.80;;
76903;SDS011;65865;51.698;-0.292;2023-09-19T13:19:50;3.10;;;1.10;;
76903;SDS011;65865;51.698;-0.292;2023-09-19T13:22:40;3.85;;;0.85;;
76903;SDS011;65865;51.698;-0.292;2023-09-19T13:25:08;4.22;;;1.13;;
76903;SDS011;65865;51.698;-0.292;2023-09-19T13:27:39;2.80;;;1.00;;
76903;SDS011;65865;51.698;-0.292;2023-09-19T13:30:05;3.33;;;0.68;;
76903;SDS011;65865;51.698;-0.292;2023-09-19T13:32:32;3.50;;;0.80;;
76903;SDS011;65865;51.698;-0.292;2023-09-19T13:34:58;2.80;;;0.70;;
76903;SDS011;65865;51.698;-0.292;2023-09-19T13:37:24;3.30;;;0.82;;
76903;SDS011;65865;51.698;-0.292;2023-09-19T13:39:51;2.78;;;0.82;;
76903;SDS011;65865;51.698;-0.292;2023-09-19T13:42:18;3.38;;;0.90;;
76903;SDS011;65865;51.698;-0.292;2023-09-19T13:47:12;3.22;;;1.00;;
76903;SDS011;65865;51.698;-0.292;2023-09-19T13:49:40;5.35;;;0.80;;
76903;SDS011;65865;51.698;-0.292;2023-09-19T13:52:07;2.47;;;0.60;;
76903;SDS011;65865;51.698;-0.292;2023-09-19T13:54:33;2.42;;;0.73;;
76903;SDS011;65865;51.698;-0.292;2023-09-19T13:56:59;2.63;;;0.80;;
76903;SDS011;65865;51.698;-0.292;2023-09-19T13:59:25;3.42;;;0.70;;
76903;SDS011;65865;51.698;-0.292;2023-09-19T14:01:53;2.72;;;0.70;;
76903;SDS011;65865;51.698;-0.292;2023-09-19T14:04:20;4.15;;;0.85;;
76903;SDS011;65865;51.698;-0.292;2023-09-19T14:06:47;2.60;;;0.80;;
76903;SDS011;65865;51.698;-0.292;2023-09-19T14:09:13;2.28;;;0.60;;
76903;SDS011;65865;51.698;-0.292;2023-09-19T14:11:44;3.05;;;0.90;;
76903;SDS011;65865;51.698;-0.292;2023-09-19T14:14:12;2.35;;;0.57;;
76903;SDS011;65865;51.698;-0.292;2023-09-19T14:16:38;3.00;;;0.75;;
76903;SDS011;65865;51.698;-0.292;2023-09-19T14:19:06;1.83;;;0.63;;
76903;SDS011;65865;51.698;-0.292;2023-09-19T14:21:33;3.78;;;0.70;;
76903;SDS011;65865;51.698;-0.292;2023-09-19T14:24:01;3.00;;;0.90;;
76903;SDS011;65865;51.698;-0.292;2023-09-19T14:26:27;3.30;;;0.73;;
76903;SDS011;65865;51.698;-0.292;2023-09-19T14:28:53;2.97;;;0.70;;
76903;SDS011;65865;51.698;-0.292;2023-09-19T14:31:19;2.67;;;0.60;;
76903;SDS011;65865;51.698;-0.292;2023-09-19T14:33:45;3.15;;;0.77;;
76903;SDS011;65865;51.698;-0.292;2023-09-19T14:36:11;2.17;;;0.60;;
76903;SDS011;65865;51.698;-0.292;2023-09-19T14:38:38;3.33;;;0.80;;
76903;SDS011;65865;51.698;-0.292;2023-09-19T14:41:05;3.42;;;0.50;;
76903;SDS011;65865;51.698;-0.292;2023-09-19T14:43:31;2.90;;;0.68;;
76903;SDS011;65865;51.698;-0.292;2023-09-19T14:46:02;1.60;;;0.47;;
76903;SDS011;65865;51.698;-0.292;2023-09-19T14:48:28;3.25;;;0.70;;
76903;SDS011;65865;51.698;-0.292;2023-09-19T14:50:54;2.72;;;0.80;;
76903;SDS011;65865;51.698;-0.292;2023-09-19T14:53:20;3.15;;;0.60;;
76903;SDS011;65865;51.698;-0.292;2023-09-19T14:55:46;2.22;;;0.70;;
76903;SDS011;65865;51.698;-0.292;2023-09-19T14:58:16;3.90;;;0.80;;
76903;SDS011;65865;51.698;-0.292;2023-09-19T15:00:43;2.75;;;0.80;;
76903;SDS011;65865;51.698;-0.292;2023-09-19T15:03:10;3.05;;;0.60;;
76903;SDS011;65865;51.698;-0.292;2023-09-19T15:05:36;2.85;;;0.60;;
76903;SDS011;65865;51.698;-0.292;2023-09-19T15:08:02;3.53;;;0.70;;
76903;SDS011;65865;51.698;-0.292;2023-09-19T15:10:29;1.80;;;0.60;;
76903;SDS011;65865;51.698;-0.292;2023-09-19T15:12:55;1.90;;;0.60;;
76903;SDS011;65865;51.698;-0.292;2023-09-19T15:15:21;2.28;;;0.60;;
76903;SDS011;65865;51.698;-0.292;2023-09-19T15:17:47;4.38;;;0.60;;
76903;SDS011;65865;51.698;-0.292;2023-09-19T15:20:13;2.22;;;0.60;;
76903;SDS011;65865;51.698;-0.292;2023-09-19T15:22:40;1.67;;;0.50;;
76903;SDS011;65865;51.698;-0.292;2023-09-19T15:25:06;1.88;;;0.50;;
76903;SDS011;65865;51.698;-0.292;2023-09-19T15:27:32;2.45;;;0.60;;
76903;SDS011;65865;51.698;-0.292;2023-09-19T15:29:59;2.15;;;0.63;;
76903;SDS011;65865;51.698;-0.292;2023-09-19T15:32:29;1.98;;;0.55;;
76903;SDS011;65865;51.698;-0.292;2023-09-19T15:34:57;2.70;;;0.80;;
76903;SDS011;65865;51.698;-0.292;2023-09-19T15:37:23;2.50;;;0.73;;
76903;SDS011;65865;51.698;-0.292;2023-09-19T15:39:49;2.25;;;0.63;;
76903;SDS011;65865;51.698;-0.292;2023-09-19T15:42:15;2.38;;;0.57;;
76903;SDS011;65865;51.698;-0.292;2023-09-19T15:44:41;2.40;;;0.50;;
76903;SDS011;65865;51.698;-0.292;2023-09-19T15:47:09;2.50;;;0.60;;